Time;durP1;ratioP1;P1;durP2;ratioP2;P2;SDS_P1;SDS_P2;PMS_P1;PMS_P2;Temp;Humidity;BMP_temperature;BMP_pressure;BME280_temperature;BME280_humidity;BME280_pressure;Samples;Min_cycle;Max_cycle;Signal;HPM_P1;HPM_P2
2023/01/19 00:01:57;;;;;;;;;;;1.90;93.20;;;;;;5013640;28;19934;-81
2023/01/19 00:04:23;;;;;;;;;;;1.90;93.20;;;;;;5020399;28;19933;-81
2023/01/19 00:06:50;;;;;;;;;;;1.90;93.20;;;;;;5024484;28;19940;-79
2023/01/19 00:09:16;;;;;;;;;;;1.90;93.20;;;;;;5020793;28;19933;-82
2023/01/19 00:11:44;;;;;;;;;;;1.90;93.20;;;;;;5020535;28;19937;-83
2023/01/19 00:14:11;;;;;;;;;;;1.80;93.20;;;;;;5023783;28;20205;-82
2023/01/19 00:16:38;;;;;;;;;;;1.80;93.20;;;;;;5016987;28;19929;-81
2023/01/19 00:19:04;;;;;;;;;;;1.90;93.20;;;;;;5021061;28;20472;-83
2023/01/19 00:21:31;;;;;;;;;;;1.90;93.20;;;;;;5019798;28;20382;-82
2023/01/19 00:23:57;;;;;;;;;;;1.80;93.10;;;;;;5015795;28;19936;-81
2023/01/19 00:26:24;;;;;;;;;;;1.80;93.10;;;;;;5015095;28;19933;-81
2023/01/19 00:28:51;;;;;;;;;;;1.80;93.10;;;;;;5026696;28;19933;-81
2023/01/19 00:31:20;;;;;;;;;;;1.80;93.10;;;;;;5025110;28;19929;-80
2023/01/19 00:33:48;;;;;;;;;;;1.80;93.10;;;;;;5026183;28;20015;-81
2023/01/19 00:36:14;;;;;;;;;;;1.80;93.10;;;;;;5021957;28;19933;-80
2023/01/19 00:38:41;;;;;;;;;;;1.80;93.10;;;;;;5026670;28;19952;-83
2023/01/19 00:41:07;;;;;;;;;;;1.80;93.10;;;;;;5019747;28;20052;-81
2023/01/19 00:43:34;;;;;;;;;;;1.80;93.10;;;;;;5021720;28;19937;-82
2023/01/19 00:46:02;;;;;;;;;;;1.70;93.00;;;;;;5023681;28;19933;-81
2023/01/19 00:48:29;;;;;;;;;;;1.70;93.00;;;;;;5023451;28;19940;-82
2023/01/19 00:50:56;;;;;;;;;;;1.70;93.00;;;;;;5024330;28;19964;-82
2023/01/19 00:53:22;;;;;;;;;;;1.70;93.00;;;;;;5026202;28;19933;-80
2023/01/19 00:55:49;;;;;;;;;;;1.70;93.10;;;;;;5026392;28;19937;-81
2023/01/19 00:58:15;;;;;;;;;;;1.70;93.10;;;;;;5016199;28;20453;-81
2023/01/19 01:00:43;;;;;;;;;;;1.70;93.10;;;;;;5023610;28;19933;-82
2023/01/19 01:03:11;;;;;;;;;;;1.70;93.10;;;;;;5021529;28;19929;-79
2023/01/19 01:05:39;;;;;;;;;;;1.70;93.20;;;;;;5017606;28;19929;-80
2023/01/19 01:08:06;;;;;;;;;;;1.70;93.20;;;;;;5025980;28;20349;-83
2023/01/19 01:10:33;;;;;;;;;;;1.70;93.20;;;;;;5025752;28;19933;-84
2023/01/19 01:13:00;;;;;;;;;;;1.70;93.30;;;;;;5022314;28;19928;-81
2023/01/19 01:15:28;;;;;;;;;;;1.70;93.30;;;;;;5021431;28;19933;-82
2023/01/19 01:17:54;;;;;;;;;;;1.70;93.30;;;;;;5023961;28;20744;-83
2023/01/19 01:20:24;;;;;;;;;;;1.70;93.30;;;;;;5020854;28;20574;-80
2023/01/19 01:22:51;;;;;;;;;;;1.70;93.30;;;;;;5024649;28;19972;-80
2023/01/19 01:25:19;;;;;;;;;;;1.60;93.30;;;;;;5025493;28;20440;-80
2023/01/19 01:27:45;;;;;;;;;;;1.60;93.30;;;;;;5022338;28;19932;-80
2023/01/19 01:30:13;;;;;;;;;;;1.70;93.30;;;;;;5023882;28;20279;-81
2023/01/19 01:32:40;;;;;;;;;;;1.60;93.30;;;;;;5025553;28;19980;-81
2023/01/19 01:35:07;;;;;;;;;;;1.70;93.40;;;;;;5020398;28;21046;-82
2023/01/19 01:37:35;;;;;;;;;;;1.60;93.30;;;;;;5023710;28;20044;-80
2023/01/19 01:40:02;;;;;;;;;;;1.60;93.40;;;;;;5013461;28;19933;-80
2023/01/19 01:42:29;;;;;;;;;;;1.60;93.40;;;;;;5019677;28;19940;-80
2023/01/19 01:44:57;;;;;;;;;;;1.60;93.40;;;;;;5021315;28;20315;-81
2023/01/19 01:47:26;;;;;;;;;;;1.60;93.40;;;;;;5017243;28;19933;-80
2023/01/19 01:49:56;;;;;;;;;;;1.60;93.40;;;;;;5020837;28;19956;-80
2023/01/19 01:52:24;;;;;;;;;;;1.60;93.40;;;;;;5023988;28;19936;-81
2023/01/19 01:54:52;;;;;;;;;;;1.60;93.40;;;;;;5022198;28;19929;-80
2023/01/19 01:57:19;;;;;;;;;;;1.60;93.40;;;;;;5021375;28;19975;-81
2023/01/19 01:59:48;;;;;;;;;;;1.60;93.40;;;;;;5018743;28;19979;-80
2023/01/19 02:05:03;;;;;;;;;;;1.60;93.50;;;;;;5021037;28;20307;-82
2023/01/19 02:13:19;;;;;;;;;;;1.60;93.50;;;;;;5020445;28;20418;-80
2023/01/19 02:15:46;;;;;;;;;;;1.60;93.50;;;;;;5020562;28;19933;-80
2023/01/19 02:18:13;;;;;;;;;;;1.60;93.50;;;;;;5021017;28;19937;-80
2023/01/19 02:20:41;;;;;;;;;;;1.60;93.50;;;;;;5018078;28;20569;-80
2023/01/19 02:23:14;;;;;;;;;;;1.60;93.60;;;;;;5022306;28;19990;-80
2023/01/19 02:25:42;;;;;;;;;;;1.60;93.60;;;;;;5021555;28;20355;-80
2023/01/19 02:28:09;;;;;;;;;;;1.60;93.60;;;;;;5023379;28;19937;-80
2023/01/19 02:30:37;;;;;;;;;;;1.60;93.60;;;;;;5020794;28;19959;-80
2023/01/19 02:33:03;;;;;;;;;;;1.60;93.60;;;;;;5020110;28;20361;-80
2023/01/19 02:35:30;;;;;;;;;;;1.60;93.60;;;;;;5018013;28;19929;-80
2023/01/19 02:37:57;;;;;;;;;;;1.60;93.60;;;;;;5020648;28;19936;-80
2023/01/19 02:40:25;;;;;;;;;;;1.60;93.70;;;;;;5019351;28;19936;-80
2023/01/19 02:42:55;;;;;;;;;;;1.50;93.70;;;;;;5020287;28;20303;-80
2023/01/19 02:45:22;;;;;;;;;;;1.50;93.60;;;;;;5021318;28;19929;-80
2023/01/19 02:47:50;;;;;;;;;;;1.60;93.70;;;;;;5019904;28;20398;-80
2023/01/19 02:50:38;;;;;;;;;;;1.50;93.60;;;;;;5021251;28;19929;-81
2023/01/19 02:53:10;;;;;;;;;;;1.50;93.60;;;;;;5021752;28;19936;-82
2023/01/19 02:55:37;;;;;;;;;;;1.50;93.60;;;;;;5021784;28;19929;-80
2023/01/19 02:58:08;;;;;;;;;;;1.50;93.60;;;;;;5020584;28;19929;-83
2023/01/19 03:00:40;;;;;;;;;;;1.50;93.60;;;;;;5015988;28;19937;-81
2023/01/19 03:03:12;;;;;;;;;;;1.50;93.70;;;;;;5016231;28;20307;-81
2023/01/19 03:05:52;;;;;;;;;;;1.50;93.70;;;;;;5020801;28;20390;-82
2023/01/19 03:08:25;;;;;;;;;;;1.50;93.70;;;;;;5019851;28;20342;-80
2023/01/19 03:10:53;;;;;;;;;;;1.50;93.70;;;;;;5018119;28;20426;-81
2023/01/19 03:13:26;;;;;;;;;;;1.50;93.60;;;;;;5021467;28;19941;-80
2023/01/19 03:15:55;;;;;;;;;;;1.50;93.60;;;;;;5022676;28;19966;-81
2023/01/19 03:18:24;;;;;;;;;;;1.50;93.60;;;;;;5016742;28;19936;-79
2023/01/19 03:20:52;;;;;;;;;;;1.50;93.60;;;;;;5019845;28;20018;-82
2023/01/19 03:23:20;;;;;;;;;;;1.50;93.60;;;;;;5020029;28;20621;-80
2023/01/19 03:25:48;;;;;;;;;;;1.50;93.60;;;;;;5022646;28;19933;-80
2023/01/19 03:28:16;;;;;;;;;;;1.50;93.60;;;;;;5018106;28;19933;-81
2023/01/19 03:30:45;;;;;;;;;;;1.50;93.60;;;;;;5015641;28;19937;-81
2023/01/19 03:33:14;;;;;;;;;;;1.50;93.60;;;;;;5016548;28;20024;-82
2023/01/19 03:35:43;;;;;;;;;;;1.50;93.60;;;;;;5012822;28;19933;-80
2023/01/19 03:38:13;;;;;;;;;;;1.50;93.70;;;;;;5019416;28;19933;-81
2023/01/19 03:40:40;;;;;;;;;;;1.50;93.70;;;;;;5015558;28;19933;-80
2023/01/19 03:43:07;;;;;;;;;;;1.50;93.60;;;;;;5017169;28;19929;-80
2023/01/19 03:45:36;;;;;;;;;;;1.50;93.60;;;;;;5018056;28;20426;-81
2023/01/19 03:48:05;;;;;;;;;;;1.50;93.60;;;;;;5018296;28;20342;-82
2023/01/19 03:50:31;;;;;;;;;;;1.50;93.60;;;;;;5023266;28;19936;-80
2023/01/19 03:53:02;;;;;;;;;;;1.50;93.60;;;;;;5014013;28;19930;-80
2023/01/19 03:55:29;;;;;;;;;;;1.50;93.70;;;;;;5019694;28;20568;-81
2023/01/19 03:57:56;;;;;;;;;;;1.50;93.70;;;;;;5014018;28;20379;-80
2023/01/19 04:00:23;;;;;;;;;;;1.50;93.70;;;;;;5019967;28;19929;-82
2023/01/19 04:02:49;;;;;;;;;;;1.50;93.70;;;;;;5017641;28;19933;-82
2023/01/19 04:05:17;;;;;;;;;;;1.50;93.80;;;;;;5022696;28;19936;-81
2023/01/19 04:07:44;;;;;;;;;;;1.50;93.80;;;;;;5021297;28;20387;-82
2023/01/19 04:10:11;;;;;;;;;;;1.50;93.80;;;;;;5017377;28;19937;-80
2023/01/19 04:12:38;;;;;;;;;;;1.50;93.80;;;;;;5020130;28;20395;-82
2023/01/19 04:15:05;;;;;;;;;;;1.50;93.80;;;;;;5011941;28;20005;-80
2023/01/19 04:17:31;;;;;;;;;;;1.50;93.90;;;;;;5015806;28;20583;-79
2023/01/19 04:19:59;;;;;;;;;;;1.50;93.80;;;;;;5015319;28;19936;-81
2023/01/19 04:22:27;;;;;;;;;;;1.50;93.80;;;;;;5023358;28;19936;-80
2023/01/19 04:24:54;;;;;;;;;;;1.50;93.90;;;;;;5019331;28;19929;-80
2023/01/19 04:27:21;;;;;;;;;;;1.50;93.90;;;;;;5018710;28;19936;-81
2023/01/19 04:29:47;;;;;;;;;;;1.50;93.90;;;;;;5019543;28;19932;-80
2023/01/19 04:32:14;;;;;;;;;;;1.50;93.80;;;;;;5020194;28;19929;-81
2023/01/19 04:34:40;;;;;;;;;;;1.50;93.80;;;;;;5021338;28;20001;-81
2023/01/19 04:37:07;;;;;;;;;;;1.50;93.80;;;;;;5021900;28;20387;-81
2023/01/19 04:39:36;;;;;;;;;;;1.50;93.80;;;;;;5009654;28;20025;-81
2023/01/19 04:42:02;;;;;;;;;;;1.50;93.80;;;;;;5019077;28;19933;-80
2023/01/19 04:44:29;;;;;;;;;;;1.50;93.80;;;;;;5013243;28;19928;-79
2023/01/19 04:46:55;;;;;;;;;;;1.50;93.80;;;;;;5017125;28;19933;-80
2023/01/19 04:49:22;;;;;;;;;;;1.50;93.80;;;;;;5015489;28;19933;-81
2023/01/19 04:51:48;;;;;;;;;;;1.50;93.80;;;;;;5014982;28;19929;-82
2023/01/19 04:54:15;;;;;;;;;;;1.50;93.90;;;;;;5018444;28;20426;-81
2023/01/19 04:56:42;;;;;;;;;;;1.50;93.90;;;;;;5013195;28;19929;-80
2023/01/19 04:59:09;;;;;;;;;;;1.50;93.90;;;;;;5023254;28;19936;-79
2023/01/19 05:01:36;;;;;;;;;;;1.50;93.90;;;;;;5019056;28;19982;-81
2023/01/19 05:04:05;;;;;;;;;;;1.50;93.90;;;;;;5021414;28;19936;-82
2023/01/19 05:06:31;;;;;;;;;;;1.50;94.00;;;;;;5019680;28;20518;-80
2023/01/19 05:08:58;;;;;;;;;;;1.50;94.00;;;;;;5015849;28;19937;-80
2023/01/19 05:11:24;;;;;;;;;;;1.50;94.00;;;;;;5015350;28;19933;-82
2023/01/19 05:13:52;;;;;;;;;;;1.50;94.00;;;;;;5016134;28;19937;-83
2023/01/19 05:16:19;;;;;;;;;;;1.50;94.00;;;;;;5019205;28;19933;-82
2023/01/19 05:18:45;;;;;;;;;;;1.50;94.00;;;;;;5020026;28;19929;-81
2023/01/19 05:21:12;;;;;;;;;;;1.50;94.10;;;;;;5021855;28;20456;-81
2023/01/19 05:23:38;;;;;;;;;;;1.50;94.00;;;;;;5022286;28;19936;-79
2023/01/19 05:26:05;;;;;;;;;;;1.50;94.00;;;;;;5021439;28;19932;-81
2023/01/19 05:28:32;;;;;;;;;;;1.60;94.10;;;;;;5019667;28;19933;-83
2023/01/19 05:31:00;;;;;;;;;;;1.50;94.00;;;;;;5019531;28;20656;-80
2023/01/19 05:33:27;;;;;;;;;;;1.50;94.00;;;;;;5017664;28;19940;-81
2023/01/19 05:35:54;;;;;;;;;;;1.50;94.00;;;;;;5023072;28;20011;-82
2023/01/19 05:38:21;;;;;;;;;;;1.50;94.10;;;;;;5022513;28;19940;-81
2023/01/19 05:40:47;;;;;;;;;;;1.50;94.10;;;;;;5018621;28;19929;-81
2023/01/19 05:43:15;;;;;;;;;;;1.50;94.00;;;;;;5018019;28;19929;-82
2023/01/19 05:45:42;;;;;;;;;;;1.50;94.00;;;;;;5021947;28;19940;-80
2023/01/19 05:48:10;;;;;;;;;;;1.50;94.00;;;;;;5019808;28;20032;-82
2023/01/19 05:50:36;;;;;;;;;;;1.50;94.00;;;;;;5021303;28;19936;-79
2023/01/19 05:53:03;;;;;;;;;;;1.50;94.00;;;;;;5020724;28;19939;-80
2023/01/19 05:55:29;;;;;;;;;;;1.50;94.00;;;;;;5018461;28;19936;-79
2023/01/19 05:57:56;;;;;;;;;;;1.50;94.00;;;;;;5019799;28;19933;-80
2023/01/19 06:00:23;;;;;;;;;;;1.40;93.60;;;;;;5023827;28;19929;-80
2023/01/19 06:02:50;;;;;;;;;;;1.40;93.60;;;;;;5017261;28;20007;-79
2023/01/19 06:05:17;;;;;;;;;;;1.40;93.80;;;;;;5024392;28;19967;-79
2023/01/19 06:07:44;;;;;;;;;;;1.40;93.80;;;;;;5017954;28;20646;-79
2023/01/19 06:10:11;;;;;;;;;;;1.40;93.80;;;;;;5019738;28;19929;-80
2023/01/19 06:12:40;;;;;;;;;;;1.40;93.80;;;;;;5020052;28;19933;-78
2023/01/19 06:15:07;;;;;;;;;;;1.40;93.80;;;;;;5017777;28;19936;-79
2023/01/19 06:17:34;;;;;;;;;;;1.40;93.80;;;;;;5019937;28;19936;-79
2023/01/19 06:20:00;;;;;;;;;;;1.40;93.80;;;;;;5018813;28;20007;-79
2023/01/19 06:22:28;;;;;;;;;;;1.50;93.80;;;;;;5024528;28;19929;-79
2023/01/19 06:24:54;;;;;;;;;;;1.50;93.70;;;;;;5024369;28;19941;-80
2023/01/19 06:27:21;;;;;;;;;;;1.40;93.70;;;;;;5028552;28;20333;-81
2023/01/19 06:29:48;;;;;;;;;;;1.40;93.70;;;;;;5027185;28;19951;-79
2023/01/19 06:32:14;;;;;;;;;;;1.40;93.70;;;;;;5015468;28;19929;-79
2023/01/19 06:34:42;;;;;;;;;;;1.40;93.70;;;;;;5026083;28;19933;-79
2023/01/19 06:37:09;;;;;;;;;;;1.40;93.70;;;;;;5025710;28;19929;-79
2023/01/19 06:39:39;;;;;;;;;;;1.50;93.70;;;;;;5022944;28;19979;-80
2023/01/19 06:42:06;;;;;;;;;;;1.40;93.70;;;;;;5015864;28;19933;-79
2023/01/19 06:44:33;;;;;;;;;;;1.40;93.70;;;;;;5019922;28;19938;-79
2023/01/19 06:46:59;;;;;;;;;;;1.40;93.70;;;;;;5020259;28;19934;-80
2023/01/19 06:49:26;;;;;;;;;;;1.40;93.70;;;;;;5022979;28;19937;-80
2023/01/19 06:51:52;;;;;;;;;;;1.40;93.70;;;;;;5024131;28;19933;-79
2023/01/19 06:54:19;;;;;;;;;;;1.40;93.60;;;;;;5026297;28;19929;-80
2023/01/19 06:56:47;;;;;;;;;;;1.40;93.60;;;;;;5023525;28;19929;-78
2023/01/19 06:59:13;;;;;;;;;;;1.40;93.60;;;;;;5019730;28;20466;-79
2023/01/19 07:01:40;;;;;;;;;;;1.40;93.60;;;;;;5021415;28;19933;-80
2023/01/19 07:04:06;;;;;;;;;;;1.40;93.60;;;;;;5014531;28;19945;-79
2023/01/19 07:06:33;;;;;;;;;;;1.40;93.60;;;;;;5023712;28;19937;-79
2023/01/19 07:08:59;;;;;;;;;;;1.40;93.60;;;;;;5014836;28;19937;-79
2023/01/19 07:11:26;;;;;;;;;;;1.40;93.60;;;;;;5018689;28;19937;-79
2023/01/19 07:13:55;;;;;;;;;;;1.40;93.60;;;;;;5017548;28;20824;-79
2023/01/19 07:16:21;;;;;;;;;;;1.40;93.60;;;;;;5023896;28;19959;-80
2023/01/19 07:18:48;;;;;;;;;;;1.40;93.60;;;;;;5018920;28;19975;-79
2023/01/19 07:21:15;;;;;;;;;;;1.40;93.60;;;;;;5019483;28;19933;-80
2023/01/19 07:23:42;;;;;;;;;;;1.40;93.60;;;;;;5019520;28;19933;-79
2023/01/19 07:26:09;;;;;;;;;;;1.40;93.60;;;;;;5015329;28;20029;-79
2023/01/19 07:28:36;;;;;;;;;;;1.40;93.60;;;;;;5024931;28;19936;-79
2023/01/19 07:31:04;;;;;;;;;;;1.40;93.60;;;;;;5020729;28;20026;-79
2023/01/19 07:33:30;;;;;;;;;;;1.40;93.60;;;;;;5020705;28;19929;-79
2023/01/19 07:35:57;;;;;;;;;;;1.40;93.60;;;;;;5021639;28;20020;-79
2023/01/19 07:38:24;;;;;;;;;;;1.40;93.60;;;;;;5024605;28;19929;-79
2023/01/19 07:40:50;;;;;;;;;;;1.40;93.60;;;;;;5022492;28;20632;-80
2023/01/19 07:43:17;;;;;;;;;;;1.40;93.70;;;;;;5017736;28;20338;-80
2023/01/19 07:45:43;;;;;;;;;;;1.40;93.60;;;;;;5019992;28;19937;-79
2023/01/19 07:48:11;;;;;;;;;;;1.40;93.70;;;;;;5015797;28;20012;-79
2023/01/19 07:50:38;;;;;;;;;;;1.40;93.70;;;;;;5015997;28;19929;-79
2023/01/19 07:53:04;;;;;;;;;;;1.40;93.70;;;;;;5016943;28;19937;-79
2023/01/19 07:55:31;;;;;;;;;;;1.40;93.70;;;;;;5018613;28;19929;-78
2023/01/19 07:57:57;;;;;;;;;;;1.50;93.70;;;;;;5021311;28;19929;-79
2023/01/19 08:00:24;;;;;;;;;;;1.50;93.70;;;;;;5023017;28;19933;-79
2023/01/19 08:02:52;;;;;;;;;;;1.50;93.70;;;;;;5017313;28;20399;-78
2023/01/19 08:05:20;;;;;;;;;;;1.50;93.60;;;;;;5020240;28;20016;-79
2023/01/19 08:07:47;;;;;;;;;;;1.50;93.60;;;;;;5018940;28;20016;-79
2023/01/19 08:10:14;;;;;;;;;;;1.50;93.60;;;;;;5020785;28;20613;-79
2023/01/19 08:12:41;;;;;;;;;;;1.40;93.60;;;;;;5019054;28;19936;-79
2023/01/19 08:15:08;;;;;;;;;;;1.50;93.60;;;;;;5021967;28;20021;-78
2023/01/19 08:17:35;;;;;;;;;;;1.50;93.90;;;;;;5022442;28;19936;-79
2023/01/19 08:20:02;;;;;;;;;;;1.50;93.60;;;;;;5019998;28;19929;-79
2023/01/19 08:22:30;;;;;;;;;;;1.50;93.60;;;;;;5022344;28;19979;-79
2023/01/19 08:24:56;;;;;;;;;;;1.50;93.60;;;;;;5022922;28;19925;-78
2023/01/19 08:27:23;;;;;;;;;;;1.50;93.60;;;;;;5010996;28;20589;-79
2023/01/19 08:29:49;;;;;;;;;;;1.50;93.60;;;;;;5011393;28;20076;-79
2023/01/19 08:32:16;;;;;;;;;;;1.50;93.60;;;;;;5014274;28;19929;-80
2023/01/19 08:34:42;;;;;;;;;;;1.50;93.60;;;;;;5012141;28;20398;-78
2023/01/19 08:37:09;;;;;;;;;;;1.50;93.60;;;;;;5010268;28;19925;-79
2023/01/19 08:39:37;;;;;;;;;;;1.50;93.60;;;;;;5019780;28;19933;-80
2023/01/19 08:42:04;;;;;;;;;;;1.50;93.60;;;;;;5021759;28;19936;-79
2023/01/19 08:44:30;;;;;;;;;;;1.50;93.60;;;;;;5018522;28;19933;-78
2023/01/19 08:46:57;;;;;;;;;;;1.50;93.60;;;;;;5017946;28;19929;-78
2023/01/19 08:49:23;;;;;;;;;;;1.60;93.60;;;;;;5021874;28;19933;-79
2023/01/19 08:51:50;;;;;;;;;;;1.60;93.60;;;;;;5023619;28;19979;-78
2023/01/19 08:54:17;;;;;;;;;;;1.60;93.60;;;;;;5021511;28;19925;-79
2023/01/19 08:56:44;;;;;;;;;;;1.60;93.60;;;;;;5020548;28;19929;-79
2023/01/19 08:59:11;;;;;;;;;;;1.60;93.60;;;;;;5024914;28;19929;-79
2023/01/19 09:01:38;;;;;;;;;;;1.60;93.60;;;;;;5022664;28;19936;-79
2023/01/19 09:04:05;;;;;;;;;;;1.60;93.60;;;;;;5021118;28;19929;-79
2023/01/19 09:06:31;;;;;;;;;;;1.60;93.60;;;;;;5027797;28;20017;-79
2023/01/19 09:08:58;;;;;;;;;;;1.60;93.60;;;;;;5023644;28;19940;-78
2023/01/19 09:11:24;;;;;;;;;;;1.60;93.60;;;;;;5019993;28;19925;-79
2023/01/19 09:13:52;;;;;;;;;;;1.60;93.60;;;;;;5020643;28;20476;-79
2023/01/19 09:16:18;;;;;;;;;;;1.60;93.50;;;;;;5024846;28;19940;-79
2023/01/19 09:18:45;;;;;;;;;;;1.60;93.60;;;;;;5019754;28;19936;-80
2023/01/19 09:21:12;;;;;;;;;;;1.60;93.60;;;;;;5020419;28;19929;-79
2023/01/19 09:23:39;;;;;;;;;;;1.60;93.50;;;;;;5017070;28;20425;-79
2023/01/19 09:26:05;;;;;;;;;;;1.60;93.50;;;;;;5016665;28;19933;-80
2023/01/19 09:28:32;;;;;;;;;;;1.60;93.50;;;;;;5022447;28;19936;-79
2023/01/19 09:31:04;;;;;;;;;;;1.60;93.50;;;;;;5017477;28;19929;-80
2023/01/19 09:33:30;;;;;;;;;;;1.70;93.50;;;;;;5016179;28;20468;-81
2023/01/19 09:35:57;;;;;;;;;;;1.70;93.50;;;;;;5021350;28;20648;-79
2023/01/19 09:38:24;;;;;;;;;;;1.70;93.50;;;;;;5020560;28;19929;-79
2023/01/19 09:40:52;;;;;;;;;;;1.70;93.50;;;;;;5018550;28;19936;-79
2023/01/19 09:43:22;;;;;;;;;;;1.80;93.50;;;;;;5017646;28;19929;-79
2023/01/19 09:45:51;;;;;;;;;;;1.70;93.50;;;;;;5017331;28;20024;-79
2023/01/19 09:48:29;;;;;;;;;;;1.70;93.50;;;;;;5019379;28;19940;-80
2023/01/19 09:50:57;;;;;;;;;;;1.80;93.50;;;;;;5017001;28;20064;-79
2023/01/19 09:53:28;;;;;;;;;;;1.80;93.50;;;;;;5018808;28;19949;-79
2023/01/19 09:55:54;;;;;;;;;;;1.80;93.50;;;;;;5019375;28;19949;-80
2023/01/19 09:58:21;;;;;;;;;;;1.80;93.50;;;;;;5018649;28;19929;-80
2023/01/19 10:00:51;;;;;;;;;;;1.80;93.50;;;;;;5018953;28;20701;-80
2023/01/19 10:03:19;;;;;;;;;;;1.80;93.50;;;;;;5017076;28;20589;-79
2023/01/19 10:05:48;;;;;;;;;;;1.80;93.50;;;;;;5019263;28;19989;-80
2023/01/19 10:08:18;;;;;;;;;;;1.90;93.50;;;;;;5019343;28;19937;-79
2023/01/19 10:10:47;;;;;;;;;;;1.80;93.50;;;;;;5023587;28;20375;-80
2023/01/19 10:13:21;;;;;;;;;;;1.80;93.50;;;;;;5023197;28;20023;-79
2023/01/19 10:15:52;;;;;;;;;;;1.90;93.50;;;;;;5017063;28;19937;-78
2023/01/19 10:18:19;;;;;;;;;;;1.80;93.50;;;;;;5016573;28;20510;-79
2023/01/19 10:20:49;;;;;;;;;;;1.90;93.50;;;;;;5019559;28;19940;-79
2023/01/19 10:23:21;;;;;;;;;;;1.90;93.50;;;;;;5018974;28;20031;-80
2023/01/19 10:25:48;;;;;;;;;;;1.80;93.50;;;;;;5016747;28;19928;-79
2023/01/19 10:28:16;;;;;;;;;;;1.90;93.60;;;;;;5019798;28;19937;-79
2023/01/19 10:30:44;;;;;;;;;;;1.90;93.60;;;;;;5022365;28;19983;-78
2023/01/19 10:33:11;;;;;;;;;;;1.90;93.60;;;;;;5015576;28;19929;-79
2023/01/19 10:35:38;;;;;;;;;;;1.90;93.60;;;;;;5022919;28;19929;-79
2023/01/19 10:38:05;;;;;;;;;;;1.90;93.60;;;;;;5020824;28;19933;-78
2023/01/19 10:40:36;;;;;;;;;;;1.90;93.60;;;;;;5022893;28;19929;-78
2023/01/19 10:43:22;;;;;;;;;;;1.90;93.60;;;;;;5018157;28;20403;-79
2023/01/19 10:45:49;;;;;;;;;;;1.90;93.60;;;;;;5017217;28;19937;-79
2023/01/19 10:48:16;;;;;;;;;;;1.90;93.60;;;;;;5021898;28;19944;-79
2023/01/19 10:50:42;;;;;;;;;;;1.90;93.60;;;;;;5019638;28;19929;-78
2023/01/19 10:53:19;;;;;;;;;;;1.90;93.60;;;;;;5022441;28;19933;-78
2023/01/19 10:55:45;;;;;;;;;;;1.90;93.70;;;;;;5021092;28;19929;-79
2023/01/19 10:58:26;;;;;;;;;;;2.00;93.80;;;;;;5019827;28;19933;-79
2023/01/19 11:00:53;;;;;;;;;;;2.00;93.70;;;;;;5022549;28;19933;-78
2023/01/19 11:03:22;;;;;;;;;;;2.00;93.70;;;;;;5011888;28;19936;-79
2023/01/19 11:05:48;;;;;;;;;;;2.00;93.70;;;;;;5016123;28;19933;-79
2023/01/19 11:08:23;;;;;;;;;;;2.00;93.60;;;;;;5013885;28;20391;-79
2023/01/19 11:10:52;;;;;;;;;;;2.00;93.60;;;;;;5018100;28;19929;-78
2023/01/19 11:13:19;;;;;;;;;;;2.00;93.60;;;;;;5014369;28;19933;-79
2023/01/19 11:15:50;;;;;;;;;;;2.00;93.60;;;;;;5021650;28;19941;-78
2023/01/19 11:18:23;;;;;;;;;;;2.00;93.60;;;;;;5014616;28;20490;-79
2023/01/19 11:20:50;;;;;;;;;;;2.00;93.60;;;;;;5020133;28;20802;-78
2023/01/19 11:23:24;;;;;;;;;;;2.00;93.60;;;;;;5019201;28;19933;-78
2023/01/19 11:25:53;;;;;;;;;;;2.10;93.70;;;;;;5019069;28;19933;-78
2023/01/19 11:28:21;;;;;;;;;;;2.10;93.70;;;;;;5021180;28;20008;-78
2023/01/19 11:30:54;;;;;;;;;;;2.10;93.70;;;;;;5016206;28;19929;-79
2023/01/19 11:33:24;;;;;;;;;;;2.10;93.70;;;;;;5015809;28;19936;-78
2023/01/19 11:36:01;;;;;;;;;;;2.10;93.70;;;;;;5024236;28;20397;-80
2023/01/19 11:38:27;;;;;;;;;;;2.10;93.80;;;;;;5021978;28;20063;-79
2023/01/19 11:40:56;;;;;;;;;;;2.10;93.80;;;;;;5020001;28;19933;-79
2023/01/19 11:43:24;;;;;;;;;;;2.10;93.80;;;;;;5021634;28;20557;-78
2023/01/19 11:45:51;;;;;;;;;;;2.10;93.80;;;;;;5019044;28;19967;-78
2023/01/19 11:48:22;;;;;;;;;;;2.10;93.90;;;;;;5014281;28;19933;-79
2023/01/19 11:50:49;;;;;;;;;;;2.10;93.80;;;;;;5018213;28;20426;-78
2023/01/19 11:53:18;;;;;;;;;;;2.20;93.90;;;;;;5023076;28;20581;-79
2023/01/19 11:55:48;;;;;;;;;;;2.20;93.80;;;;;;5017722;28;19940;-78
2023/01/19 11:58:16;;;;;;;;;;;2.20;93.80;;;;;;5015251;28;19951;-78
2023/01/19 12:00:44;;;;;;;;;;;2.20;93.70;;;;;;5017124;28;19929;-78
2023/01/19 12:03:14;;;;;;;;;;;2.20;93.60;;;;;;5017192;28;19975;-79
2023/01/19 12:05:43;;;;;;;;;;;2.30;93.60;;;;;;5015874;28;19968;-78
2023/01/19 12:08:13;;;;;;;;;;;2.30;93.50;;;;;;5017996;28;19965;-78
2023/01/19 12:10:43;;;;;;;;;;;2.30;93.50;;;;;;5018503;28;20044;-79
2023/01/19 12:13:17;;;;;;;;;;;2.40;93.50;;;;;;5020947;28;19940;-79
2023/01/19 12:15:46;;;;;;;;;;;2.30;93.40;;;;;;5022878;28;20338;-79
2023/01/19 12:18:17;;;;;;;;;;;2.30;93.40;;;;;;5019590;28;19933;-78
2023/01/19 12:20:46;;;;;;;;;;;2.40;93.40;;;;;;5016706;28;19979;-79
2023/01/19 12:23:18;;;;;;;;;;;2.40;93.40;;;;;;5023314;28;19941;-79
2023/01/19 12:25:51;;;;;;;;;;;2.40;93.40;;;;;;5019332;28;19933;-79
2023/01/19 12:28:18;;;;;;;;;;;2.40;93.40;;;;;;5019475;28;21888;-79
2023/01/19 12:30:46;;;;;;;;;;;2.40;93.60;;;;;;5023022;28;19936;-78
2023/01/19 12:33:24;;;;;;;;;;;2.40;93.30;;;;;;5020260;28;19937;-79
2023/01/19 12:35:54;;;;;;;;;;;2.40;93.30;;;;;;5021372;28;19929;-78
2023/01/19 12:38:33;;;;;;;;;;;2.40;93.30;;;;;;5018815;28;19956;-78
2023/01/19 12:41:22;;;;;;;;;;;2.40;93.30;;;;;;5019865;28;19934;-78
2023/01/19 12:44:09;;;;;;;;;;;2.40;93.30;;;;;;5023253;28;19940;-78
2023/01/19 12:46:37;;;;;;;;;;;2.40;93.40;;;;;;5015861;28;20474;-78
2023/01/19 12:49:05;;;;;;;;;;;2.40;93.40;;;;;;5023322;28;19991;-78
2023/01/19 12:51:32;;;;;;;;;;;2.40;93.40;;;;;;5026232;28;19929;-78
2023/01/19 12:53:59;;;;;;;;;;;2.40;93.40;;;;;;5024188;28;19929;-78
2023/01/19 12:56:28;;;;;;;;;;;2.40;93.40;;;;;;5024099;28;20028;-78
2023/01/19 12:58:55;;;;;;;;;;;2.40;93.40;;;;;;5021350;28;19933;-79
2023/01/19 13:01:23;;;;;;;;;;;2.50;93.40;;;;;;5025385;28;20054;-78
2023/01/19 13:04:05;;;;;;;;;;;2.40;93.40;;;;;;5027355;28;19929;-78
2023/01/19 13:06:50;;;;;;;;;;;2.40;93.40;;;;;;5024964;28;20353;-78
2023/01/19 13:09:29;;;;;;;;;;;2.50;93.50;;;;;;5024584;28;19983;-78
2023/01/19 13:12:19;;;;;;;;;;;2.50;93.50;;;;;;5025352;28;20713;-78
2023/01/19 13:14:46;;;;;;;;;;;2.50;93.50;;;;;;5014972;28;19968;-79
2023/01/19 13:17:22;;;;;;;;;;;2.50;93.50;;;;;;5022120;28;19930;-78
2023/01/19 13:19:53;;;;;;;;;;;2.50;93.50;;;;;;5021832;28;19984;-78
2023/01/19 13:22:38;;;;;;;;;;;2.50;93.40;;;;;;5022369;28;19929;-78
2023/01/19 13:25:07;;;;;;;;;;;2.50;93.40;;;;;;5019405;28;19944;-78
2023/01/19 13:27:34;;;;;;;;;;;2.50;93.30;;;;;;5027664;28;19952;-79
2023/01/19 13:30:01;;;;;;;;;;;2.50;93.30;;;;;;5025937;28;19937;-78
2023/01/19 13:32:28;;;;;;;;;;;2.50;93.30;;;;;;5020109;28;19933;-78
2023/01/19 13:34:57;;;;;;;;;;;2.50;93.30;;;;;;5024935;28;20642;-78
2023/01/19 13:37:26;;;;;;;;;;;2.60;93.30;;;;;;5019148;28;19933;-78
2023/01/19 13:39:54;;;;;;;;;;;2.60;93.30;;;;;;5023650;28;20327;-78
2023/01/19 13:42:27;;;;;;;;;;;2.60;93.30;;;;;;5023737;28;19946;-78
2023/01/19 13:44:55;;;;;;;;;;;2.60;93.30;;;;;;5025929;28;19929;-78
2023/01/19 13:47:23;;;;;;;;;;;2.60;93.20;;;;;;5019101;28;19937;-79
2023/01/19 13:49:51;;;;;;;;;;;2.60;93.10;;;;;;5019850;28;19929;-79
2023/01/19 13:52:21;;;;;;;;;;;2.60;93.10;;;;;;5017168;28;20556;-78
2023/01/19 13:54:48;;;;;;;;;;;2.70;93.10;;;;;;5021123;28;20551;-78
2023/01/19 13:57:25;;;;;;;;;;;2.60;93.00;;;;;;5025364;28;19979;-78
2023/01/19 14:00:10;;;;;;;;;;;2.60;93.00;;;;;;5023381;28;19936;-79
2023/01/19 14:02:37;;;;;;;;;;;2.60;93.00;;;;;;5004587;28;19929;-79
2023/01/19 14:05:12;;;;;;;;;;;2.70;93.00;;;;;;5021953;28;19929;-77
2023/01/19 14:07:40;;;;;;;;;;;2.70;93.00;;;;;;5012273;28;19929;-78
2023/01/19 14:10:11;;;;;;;;;;;2.70;93.00;;;;;;5009514;28;19930;-80
2023/01/19 14:12:38;;;;;;;;;;;2.70;92.90;;;;;;5020770;28;20417;-78
2023/01/19 14:15:10;;;;;;;;;;;2.70;92.90;;;;;;5008718;28;20531;-81
2023/01/19 14:17:36;;;;;;;;;;;2.80;92.80;;;;;;5013007;28;19956;-78
2023/01/19 14:20:04;;;;;;;;;;;2.80;92.70;;;;;;5006625;28;19933;-78
2023/01/19 14:22:37;;;;;;;;;;;2.80;92.60;;;;;;5019011;28;20081;-78
2023/01/19 14:25:18;;;;;;;;;;;2.90;92.60;;;;;;5013373;28;19935;-78
2023/01/19 14:27:46;;;;;;;;;;;2.90;92.50;;;;;;5012932;28;19936;-79
2023/01/19 14:30:19;;;;;;;;;;;2.90;92.40;;;;;;5018425;28;19952;-78
2023/01/19 14:32:46;;;;;;;;;;;3.00;92.30;;;;;;5013388;28;19979;-74
2023/01/19 14:35:13;;;;;;;;;;;3.00;92.20;;;;;;5020926;28;19933;-74
2023/01/19 14:37:46;;;;;;;;;;;3.00;92.20;;;;;;5019685;28;19929;-74
2023/01/19 14:40:17;;;;;;;;;;;3.00;92.10;;;;;;5017725;28;19926;-74
2023/01/19 14:42:45;;;;;;;;;;;3.00;92.30;;;;;;5025078;28;19933;-73
2023/01/19 14:45:16;;;;;;;;;;;2.90;91.90;;;;;;5022243;28;20030;-73
2023/01/19 14:47:44;;;;;;;;;;;3.00;91.90;;;;;;5016406;28;19929;-73